Yasemin — 9HA2114 — position and weather

sailwx.info

Track history (hours):
 
Tides and Currents Weather Stations Pressure Air Temp Water Temp Dewpoint Dewpoint Depression Visibility Wind Speed Wind Dir Waves Ship Positions

Yasemin

Last reported at 2014-Aug-18 20:10 UTC. Time now 2014-Aug-21 10:14 UTC.
Position N 41°27' E 029°36'.

Length 105 m; draft 4.5 m.

Type: Cargo ship. MMSI: 249988000.

Date/timePositionNaut miles runAvg speedWind from/ knotsBaromVisibWave heightAir tempDewpointWater temp
2014-Aug-18 20:10N 41°27' E 029°36'5 9.2
2014-Aug-18 19:34N 41°24' E 029°30'9 9.2
2014-Aug-18 18:33N 41°19' E 029°20'24 8.1
2014-Aug-18 15:33N 40°60' E 028°60'4 4.0
2014-Aug-18 14:33N 40°58' E 028°55'0 0.4
2014-Aug-18 13:28N 40°58' E 028°55'0 0.0
2014-Aug-18 12:16N 40°58' E 028°55'0 0.0
2014-Aug-18 08:28N 40°58' E 028°55'0 0.0
2014-Aug-18 07:16N 40°58' E 028°55'0 0.0
2014-Aug-18 06:22N 40°58' E 028°55'2 0.2
2014-Aug-17 18:33N 40°57' E 028°57'8 8.2
2014-Aug-17 17:33N 40°52' E 028°49'208 8.2
2014-Aug-16 16:09N 37°56' E 026°25'812.8
2014-Aug-16 15:32N 37°49' E 026°29'1712.1
2014-Aug-16 14:08N 37°35' E 026°39'812.6
2014-Aug-16 13:33N 37°29' E 026°46'1312.8
2014-Aug-16 12:33N 37°19' E 026°55'1412.4
2014-Aug-16 11:27N 37°07' E 027°04'1112.3
2014-Aug-16 10:33N 36°59' E 027°13'7 6.4
2014-Aug-16 09:26N 36°60' E 027°21'0 0.0
2014-Aug-16 08:26N 36°60' E 027°21'0 0.1
2014-Aug-16 07:29N 36°60' E 027°21'0 0.0
2014-Aug-16 06:32N 36°60' E 027°21'0 0.0
2014-Aug-16 05:32N 36°60' E 027°21'0 0.1
2014-Aug-16 04:26N 36°60' E 027°21'0 0.0
2014-Aug-16 03:32N 36°60' E 027°21'0 0.0
2014-Aug-16 02:32N 36°60' E 027°21'15 7.3
2014-Aug-16 00:33N 36°45' E 027°22'10 9.9
2014-Aug-15 23:32N 36°37' E 027°29'1413.3
2014-Aug-15 22:31N 36°32' E 027°44'3212.9
2014-Aug-15 20:03N 36°23' E 028°23'1012.7
2014-Aug-15 19:14N 36°16' E 028°32'912.7
2014-Aug-15 18:33N 36°10' E 028°40'1713.5
2014-Aug-15 17:16N 35°58' E 028°55'1114.0
2014-Aug-15 16:31N 35°51' E 029°05'4112.4
2014-Aug-15 13:12N 35°22' E 029°41'2312.1
2014-Aug-15 11:17N 35°07' E 030°02'5912.4
2014-Aug-15 06:32N 34°26' E 030°54'1313.0
2014-Aug-15 05:33N 34°18' E 031°06'2813.2
2014-Aug-15 03:26N 33°58' E 031°30'2612.9
2014-Aug-15 01:26N 33°40' E 031°53'1112.6
2014-Aug-15 00:33N 33°33' E 032°02'1312.6
2014-Aug-14 23:33N 33°24' E 032°13'1312.6
2014-Aug-14 22:33N 33°15' E 032°24'1312.6
2014-Aug-14 21:33N 33°07' E 032°35'1312.7
2014-Aug-14 20:33N 32°58' E 032°46'1312.9
2014-Aug-14 19:33N 32°50' E 032°58'1413.1
2014-Aug-14 18:28N 32°40' E 033°10'1213.1
2014-Aug-14 17:33N 32°32' E 033°20'1312.7
2014-Aug-14 16:33N 32°23' E 033°31'1211.6
2014-Aug-14 15:33N 32°15' E 033°41'1312.4
2014-Aug-14 14:32N 32°07' E 033°53'1212.3
2014-Aug-14 13:33N 32°02' E 034°06'1211.9
2014-Aug-14 12:33N 31°57' E 034°19'1411.3
2014-Aug-14 11:18N 31°52' E 034°34'27 0.9
2014-Aug-13 05:33N 32°01' E 034°05'1212.3
2014-Aug-13 04:33N 32°07' E 033°51'1212.1
2014-Aug-13 03:33N 32°05' E 033°37'1312.6
2014-Aug-13 02:34N 32°01' E 033°23'1312.6
2014-Aug-13 01:33N 31°59' E 033°08'5313.1
2014-Aug-12 21:32N 31°46' E 032°08'1313.2
2014-Aug-12 20:33N 31°41' E 031°54'1111.1
2014-Aug-12 19:34N 31°32' E 031°46'5 4.5
2014-Aug-12 18:22N 31°27' E 031°46'0 0.0
2014-Aug-12 16:07N 31°27' E 031°46'0 0.0
2014-Aug-12 15:28N 31°27' E 031°46'0 0.0
2014-Aug-12 14:07N 31°27' E 031°46'0 0.0
2014-Aug-12 12:10N 31°27' E 031°46'0 0.0
2014-Aug-12 07:28N 31°27' E 031°46'0 0.0
2014-Aug-12 01:31N 31°27' E 031°46'0 0.0
2014-Aug-12 00:28N 31°27' E 031°46'0 0.0
2014-Aug-11 23:22N 31°27' E 031°46'0 0.0
2014-Aug-11 21:04N 31°27' E 031°46'0 0.0
2014-Aug-11 19:28N 31°27' E 031°46'0 0.0
2014-Aug-11 16:22N 31°27' E 031°46'0 0.3
2014-Aug-11 15:33N 31°27' E 031°46'7 7.1
2014-Aug-11 14:33N 31°35' E 031°47'2 0.7
2014-Aug-11 12:13N 31°36' E 031°46'  
Track history (hours):
 
Tides and Currents Weather Stations Pressure Air Temp Water Temp Dewpoint Dewpoint Depression Visibility Wind Speed Wind Dir Waves Ship Positions

Yasemin

Last reported at 2014-Aug-18 20:10 UTC. Time now 2014-Aug-21 10:14 UTC.
Position N 41°27' E 029°36'.

Length 105 m; draft 4.5 m.

Type: Cargo ship. MMSI: 249988000.

Date/timePositionNaut miles runAvg speedWind from/ knotsBaromVisibWave heightAir tempDewpointWater temp
2014-Aug-18 20:10N 41°27' E 029°36'5 9.2
2014-Aug-18 19:34N 41°24' E 029°30'9 9.2
2014-Aug-18 18:33N 41°19' E 029°20'24 8.1
2014-Aug-18 15:33N 40°60' E 028°60'4 4.0
2014-Aug-18 14:33N 40°58' E 028°55'0 0.4
2014-Aug-18 13:28N 40°58' E 028°55'0 0.0
2014-Aug-18 12:16N 40°58' E 028°55'0 0.0
2014-Aug-18 08:28N 40°58' E 028°55'0 0.0
2014-Aug-18 07:16N 40°58' E 028°55'0 0.0
2014-Aug-18 06:22N 40°58' E 028°55'2 0.2
2014-Aug-17 18:33N 40°57' E 028°57'8 8.2
2014-Aug-17 17:33N 40°52' E 028°49'208 8.2
2014-Aug-16 16:09N 37°56' E 026°25'812.8
2014-Aug-16 15:32N 37°49' E 026°29'1712.1
2014-Aug-16 14:08N 37°35' E 026°39'812.6
2014-Aug-16 13:33N 37°29' E 026°46'1312.8
2014-Aug-16 12:33N 37°19' E 026°55'1412.4
2014-Aug-16 11:27N 37°07' E 027°04'1112.3
2014-Aug-16 10:33N 36°59' E 027°13'7 6.4
2014-Aug-16 09:26N 36°60' E 027°21'0 0.0
2014-Aug-16 08:26N 36°60' E 027°21'0 0.1
2014-Aug-16 07:29N 36°60' E 027°21'0 0.0
2014-Aug-16 06:32N 36°60' E 027°21'0 0.0
2014-Aug-16 05:32N 36°60' E 027°21'0 0.1
2014-Aug-16 04:26N 36°60' E 027°21'0 0.0
2014-Aug-16 03:32N 36°60' E 027°21'0 0.0
2014-Aug-16 02:32N 36°60' E 027°21'15 7.3
2014-Aug-16 00:33N 36°45' E 027°22'10 9.9
2014-Aug-15 23:32N 36°37' E 027°29'1413.3
2014-Aug-15 22:31N 36°32' E 027°44'3212.9
2014-Aug-15 20:03N 36°23' E 028°23'1012.7
2014-Aug-15 19:14N 36°16' E 028°32'912.7
2014-Aug-15 18:33N 36°10' E 028°40'1713.5
2014-Aug-15 17:16N 35°58' E 028°55'1114.0
2014-Aug-15 16:31N 35°51' E 029°05'4112.4
2014-Aug-15 13:12N 35°22' E 029°41'2312.1
2014-Aug-15 11:17N 35°07' E 030°02'5912.4
2014-Aug-15 06:32N 34°26' E 030°54'1313.0
2014-Aug-15 05:33N 34°18' E 031°06'2813.2
2014-Aug-15 03:26N 33°58' E 031°30'2612.9
2014-Aug-15 01:26N 33°40' E 031°53'1112.6
2014-Aug-15 00:33N 33°33' E 032°02'1312.6
2014-Aug-14 23:33N 33°24' E 032°13'1312.6
2014-Aug-14 22:33N 33°15' E 032°24'1312.6
2014-Aug-14 21:33N 33°07' E 032°35'1312.7
2014-Aug-14 20:33N 32°58' E 032°46'1312.9
2014-Aug-14 19:33N 32°50' E 032°58'1413.1
2014-Aug-14 18:28N 32°40' E 033°10'1213.1
2014-Aug-14 17:33N 32°32' E 033°20'1312.7
2014-Aug-14 16:33N 32°23' E 033°31'1211.6
2014-Aug-14 15:33N 32°15' E 033°41'1312.4
2014-Aug-14 14:32N 32°07' E 033°53'1212.3
2014-Aug-14 13:33N 32°02' E 034°06'1211.9
2014-Aug-14 12:33N 31°57' E 034°19'1411.3
2014-Aug-14 11:18N 31°52' E 034°34'27 0.9
2014-Aug-13 05:33N 32°01' E 034°05'1212.3
2014-Aug-13 04:33N 32°07' E 033°51'1212.1
2014-Aug-13 03:33N 32°05' E 033°37'1312.6
2014-Aug-13 02:34N 32°01' E 033°23'1312.6
2014-Aug-13 01:33N 31°59' E 033°08'5313.1
2014-Aug-12 21:32N 31°46' E 032°08'1313.2
2014-Aug-12 20:33N 31°41' E 031°54'1111.1
2014-Aug-12 19:34N 31°32' E 031°46'5 4.5
2014-Aug-12 18:22N 31°27' E 031°46'0 0.0
2014-Aug-12 16:07N 31°27' E 031°46'0 0.0
2014-Aug-12 15:28N 31°27' E 031°46'0 0.0
2014-Aug-12 14:07N 31°27' E 031°46'0 0.0
2014-Aug-12 12:10N 31°27' E 031°46'0 0.0
2014-Aug-12 07:28N 31°27' E 031°46'0 0.0
2014-Aug-12 01:31N 31°27' E 031°46'0 0.0
2014-Aug-12 00:28N 31°27' E 031°46'0 0.0
2014-Aug-11 23:22N 31°27' E 031°46'0 0.0
2014-Aug-11 21:04N 31°27' E 031°46'0 0.0
2014-Aug-11 19:28N 31°27' E 031°46'0 0.0
2014-Aug-11 16:22N 31°27' E 031°46'0 0.3
2014-Aug-11 15:33N 31°27' E 031°46'7 7.1
2014-Aug-11 14:33N 31°35' E 031°47'2 0.7
2014-Aug-11 12:13N 31°36' E 031°46'  

Dump ship's entire track history